Time;durP1;ratioP1;P1;durP2;ratioP2;P2;SDS_P1;SDS_P2;PMS_P1;PMS_P2;Temp;Humidity;BMP_temperature;BMP_pressure;BME280_temperature;BME280_humidity;BME280_pressure;Samples;Min_cycle;Max_cycle;Signal;HPM_P1;HPM_P2
2021/06/04 00:00:23;;;;;;;6.28;2.85;;;;;;;17.67;58.83;95919.22;1012917;29;20084;-79
2021/06/04 00:00:53;;;;;;;4.97;2.60;;;;;;;17.72;58.29;95930.13;1016880;29;20024;-80
2021/06/04 00:01:26;;;;;;;5.22;2.90;;;;;;;17.66;58.96;95933.72;1012850;29;20092;-81
2021/06/04 00:01:57;;;;;;;4.82;2.75;;;;;;;17.67;59.60;95935.34;1018267;29;20040;-81
2021/06/04 00:02:27;;;;;;;3.33;2.47;;;;;;;17.65;59.11;95931.25;1014871;29;20025;-80
2021/06/04 00:03:00;;;;;;;3.53;2.58;;;;;;;17.62;58.44;95929.00;1024554;29;20033;-81
2021/06/04 00:03:31;;;;;;;4.50;2.63;;;;;;;17.63;58.40;95938.69;1021003;29;20029;-80
2021/06/04 00:04:01;;;;;;;6.05;2.85;;;;;;;17.65;59.23;95939.31;1021559;29;20028;-82
2021/06/04 00:04:33;;;;;;;4.43;2.45;;;;;;;17.50;58.85;95913.63;1017630;29;20035;-81
2021/06/04 00:05:04;;;;;;;5.90;2.38;;;;;;;17.66;58.59;95939.09;1013303;29;20032;-82
2021/06/04 00:05:48;;;;;;;5.05;2.53;;;;;;;17.60;59.07;95925.72;1018365;29;20020;-81
2021/06/04 00:06:18;;;;;;;4.45;2.50;;;;;;;17.59;59.04;95934.78;1012414;29;20032;-80
2021/06/04 00:06:49;;;;;;;7.60;2.88;;;;;;;17.44;59.68;95911.78;1017940;29;20453;-82
2021/06/04 00:07:20;;;;;;;3.67;2.88;;;;;;;17.51;59.95;95925.16;1021153;29;20031;-82
2021/06/04 00:07:51;;;;;;;3.63;2.30;;;;;;;17.58;58.83;95930.47;1020141;29;20031;-80
2021/06/04 00:08:22;;;;;;;4.00;2.60;;;;;;;17.51;59.18;95922.47;1016263;29;20191;-81
2021/06/04 00:08:53;;;;;;;4.15;2.65;;;;;;;17.50;59.60;95927.03;1012824;29;20024;-82
2021/06/04 00:09:24;;;;;;;4.65;3.00;;;;;;;17.40;59.74;95905.22;1020624;29;20020;-81
2021/06/04 00:09:54;;;;;;;4.85;2.70;;;;;;;17.58;60.00;95928.63;1016218;29;20024;-83
2021/06/04 00:10:28;;;;;;;4.22;2.47;;;;;;;17.46;59.77;95916.94;1011057;29;20029;-80
2021/06/04 00:11:17;;;;;;;4.53;3.22;;;;;;;17.37;60.03;95902.16;1019513;29;20024;-80
2021/06/04 00:11:52;;;;;;;6.07;2.75;;;;;;;17.33;60.17;95904.47;1015141;29;20040;-80
2021/06/04 00:12:23;;;;;;;5.82;2.90;;;;;;;17.23;60.48;95893.41;1018386;29;20092;-80
2021/06/04 00:12:53;;;;;;;4.47;3.05;;;;;;;17.26;60.34;95892.94;1020852;29;20028;-81
2021/06/04 00:13:30;;;;;;;4.20;2.75;;;;;;;17.43;60.54;95917.38;1012783;29;20052;-82
2021/06/04 00:14:10;;;;;;;3.85;2.85;;;;;;;17.51;60.46;95933.22;1020229;29;20378;-81
2021/06/04 00:14:41;;;;;;;5.47;3.00;;;;;;;17.45;60.18;95940.31;1012450;29;20376;-82
2021/06/04 00:15:16;;;;;;;6.57;3.00;;;;;;;17.47;60.61;95943.59;1012526;29;20027;-82
2021/06/04 00:15:48;;;;;;;6.78;3.10;;;;;;;17.42;60.51;95927.31;1012350;29;20340;-82
2021/06/04 00:16:21;;;;;;;6.53;3.00;;;;;;;17.44;60.57;95927.91;1012351;29;20112;-84
2021/06/04 00:16:59;;;;;;;5.75;3.00;;;;;;;17.47;60.68;95940.91;1016341;29;20032;-83
2021/06/04 00:17:30;;;;;;;5.90;3.13;;;;;;;17.26;60.91;95911.72;1008527;29;20024;-81
2021/06/04 00:18:01;;;;;;;4.32;2.88;;;;;;;17.29;60.97;95917.50;1016088;29;20016;-81
2021/06/04 00:18:32;;;;;;;5.65;3.00;;;;;;;17.37;60.99;95932.50;1016172;29;20079;-83
2021/06/04 00:19:09;;;;;;;5.78;3.20;;;;;;;17.21;61.15;95915.09;1016419;29;20016;-83
2021/06/04 00:19:39;;;;;;;4.85;3.08;;;;;;;17.32;61.38;95935.84;1012351;29;20021;-82
2021/06/04 00:20:20;;;;;;;4.05;2.70;;;;;;;17.34;61.62;95949.06;1016081;29;20036;-82
2021/06/04 00:20:51;;;;;;;6.00;3.03;;;;;;;17.28;61.58;95940.00;1012553;29;20024;-83
2021/06/04 00:21:25;;;;;;;7.95;3.00;;;;;;;17.31;61.60;95936.91;1016528;29;20035;-83
2021/06/04 00:22:12;;;;;;;3.97;2.53;;;;;;;17.36;61.36;95946.97;1012304;29;20451;-81
2021/06/04 00:22:43;;;;;;;4.47;2.92;;;;;;;17.25;61.86;95928.91;1012190;29;20453;-82
2021/06/04 00:23:13;;;;;;;3.97;2.83;;;;;;;17.28;61.95;95939.19;1012798;29;20036;-81
2021/06/04 00:23:44;;;;;;;5.43;3.08;;;;;;;17.19;62.03;95924.38;1018985;29;20028;-83
2021/06/04 00:24:15;;;;;;;5.47;3.30;;;;;;;17.11;62.03;95917.44;1016091;29;20044;-83
2021/06/04 00:24:46;;;;;;;4.53;3.15;;;;;;;17.14;61.92;95917.81;1024029;29;20037;-83
2021/06/04 00:25:16;;;;;;;5.93;2.90;;;;;;;17.17;62.03;95924.59;1020720;29;20083;-84
2021/06/04 00:25:47;;;;;;;3.85;2.63;;;;;;;17.17;62.03;95926.47;1016178;29;20040;-83
2021/06/04 00:26:18;;;;;;;6.30;2.75;;;;;;;17.14;62.11;95917.00;1019986;29;20028;-83
2021/06/04 00:26:49;;;;;;;12.95;2.92;;;;;;;17.21;62.10;95933.03;1016699;29;20017;-82
2021/06/04 00:27:19;;;;;;;4.22;2.60;;;;;;;17.07;62.22;95911.69;1024135;29;20027;-83
2021/06/04 00:27:50;;;;;;;4.60;2.78;;;;;;;17.25;62.24;95945.00;1016031;29;20026;-84
2021/06/04 00:28:21;;;;;;;3.97;2.75;;;;;;;17.30;62.40;95954.03;1010521;29;20025;-83
2021/06/04 00:28:51;;;;;;;4.38;3.08;;;;;;;17.31;62.28;95944.97;1022389;29;20028;-83
2021/06/04 00:29:22;;;;;;;5.93;3.15;;;;;;;17.10;62.40;95916.63;1022470;29;20074;-83
2021/06/04 00:29:53;;;;;;;5.68;3.17;;;;;;;17.22;62.80;95945.44;1021868;29;20039;-80
2021/06/04 00:30:24;;;;;;;5.00;3.22;;;;;;;17.18;63.09;95952.28;1017234;29;20027;-80
2021/06/04 00:30:55;;;;;;;7.03;3.17;;;;;;;16.98;62.94;95918.38;1017493;29;20123;-81
2021/06/04 00:31:26;;;;;;;5.90;3.60;;;;;;;17.09;63.20;95931.06;1021246;29;20094;-81
2021/06/04 00:31:57;;;;;;;5.93;3.25;;;;;;;17.07;63.14;95933.16;1013493;29;20134;-81
2021/06/04 00:32:27;;;;;;;4.38;3.00;;;;;;;16.89;63.00;95911.59;1024819;29;20023;-82
2021/06/04 00:32:58;;;;;;;4.60;3.03;;;;;;;16.97;63.05;95919.41;1013294;29;20025;-81
2021/06/04 00:33:29;;;;;;;3.92;3.00;;;;;;;16.73;62.71;95878.84;1017306;29;20031;-81
2021/06/04 00:33:59;;;;;;;4.28;3.05;;;;;;;17.03;62.66;95931.91;1020525;29;20008;-81
2021/06/04 00:34:30;;;;;;;5.18;3.00;;;;;;;16.96;62.53;95913.22;1018030;29;20047;-80
2021/06/04 00:35:01;;;;;;;5.05;2.70;;;;;;;17.01;62.49;95917.09;1013660;29;20025;-81
2021/06/04 00:35:34;;;;;;;4.68;2.60;;;;;;;17.02;62.29;95924.13;1018038;29;20020;-81
2021/06/04 00:36:05;;;;;;;4.75;3.17;;;;;;;17.22;62.47;95950.81;1015433;29;20063;-82
2021/06/04 00:36:36;;;;;;;5.88;2.67;;;;;;;17.03;62.32;95923.88;1013324;29;20052;-81
2021/06/04 00:37:07;;;;;;;3.58;2.63;;;;;;;17.12;62.33;95929.81;1012682;29;20036;-83
2021/06/04 00:37:37;;;;;;;5.90;3.10;;;;;;;17.09;62.61;95936.44;1012594;29;20507;-82
2021/06/04 00:38:09;;;;;;;4.93;3.00;;;;;;;17.17;62.66;95943.38;1012527;29;20032;-82
2021/06/04 00:38:39;;;;;;;3.80;2.92;;;;;;;17.04;62.74;95930.91;1012694;29;20091;-82
2021/06/04 00:39:11;;;;;;;4.55;2.75;;;;;;;17.21;62.70;95949.97;1020487;29;20074;-82
2021/06/04 00:39:42;;;;;;;5.53;3.10;;;;;;;17.22;62.97;95950.81;1024496;29;20047;-83
2021/06/04 00:40:16;;;;;;;3.78;2.80;;;;;;;16.98;63.19;95917.53;1012704;29;20534;-81
2021/06/04 00:40:50;;;;;;;5.22;2.83;;;;;;;16.94;63.36;95920.63;1020734;29;20051;-83
2021/06/04 00:41:30;;;;;;;4.43;3.17;;;;;;;17.09;63.58;95951.72;1009199;29;20036;-82
2021/06/04 00:42:07;;;;;;;5.53;2.92;;;;;;;17.10;63.45;95954.19;1017167;29;20070;-83
2021/06/04 00:42:37;;;;;;;4.18;2.90;;;;;;;17.12;63.63;95954.78;1013053;29;20029;-83
2021/06/04 00:43:08;;;;;;;3.70;2.80;;;;;;;17.05;64.04;95945.13;1016641;29;20028;-84
2021/06/04 00:43:39;;;;;;;4.82;3.15;;;;;;;17.10;64.23;95956.03;1013051;29;20111;-82
2021/06/04 00:44:09;;;;;;;5.50;3.10;;;;;;;16.90;64.08;95924.78;1016797;29;20030;-81
2021/06/04 00:44:40;;;;;;;5.00;2.65;;;;;;;16.88;64.07;95918.03;1016634;29;20028;-81
2021/06/04 00:45:16;;;;;;;4.20;2.60;;;;;;;16.89;64.44;95925.81;1016910;29;20064;-82
2021/06/04 00:45:48;;;;;;;4.15;2.70;;;;;;;16.88;64.38;95924.19;1016904;29;20024;-81
2021/06/04 00:46:19;;;;;;;5.53;3.30;;;;;;;16.85;64.57;95934.53;1016842;29;20040;-80
2021/06/04 00:46:49;;;;;;;4.47;2.70;;;;;;;16.79;64.58;95925.47;1016765;29;20058;-81
2021/06/04 00:47:20;;;;;;;10.35;3.40;;;;;;;16.84;64.34;95924.84;1012976;29;20036;-81
2021/06/04 00:47:51;;;;;;;4.50;2.90;;;;;;;16.91;64.38;95933.66;1016802;29;20035;-80
2021/06/04 00:48:22;;;;;;;5.68;3.30;;;;;;;16.94;64.26;95933.22;1012723;29;20123;-81
2021/06/04 00:48:53;;;;;;;5.55;3.08;;;;;;;16.90;64.48;95932.84;1016883;29;20028;-80
2021/06/04 00:49:24;;;;;;;6.20;3.30;;;;;;;16.90;64.48;95930.16;1013314;29;20025;-81
2021/06/04 00:49:55;;;;;;;6.82;3.30;;;;;;;16.89;64.23;95919.66;1017076;29;20067;-80
2021/06/04 00:50:36;;;;;;;5.80;3.33;;;;;;;17.02;64.40;95938.34;1013316;29;20032;-80
2021/06/04 00:51:17;;;;;;;5.03;3.08;;;;;;;16.70;64.57;95900.75;1012923;29;20048;-81
2021/06/04 00:51:51;;;;;;;5.60;3.50;;;;;;;16.93;64.63;95937.78;1020894;29;20090;-81
2021/06/04 00:52:26;;;;;;;4.70;3.28;;;;;;;17.04;64.86;95955.03;1017109;29;20032;-81
2021/06/04 00:52:57;;;;;;;7.53;3.10;;;;;;;16.94;64.86;95930.53;1013104;29;20073;-82
2021/06/04 00:53:28;;;;;;;6.57;3.10;;;;;;;16.83;64.81;95920.50;1012784;29;20028;-82
2021/06/04 00:53:59;;;;;;;7.47;3.38;;;;;;;16.90;64.90;95930.16;1020828;29;20441;-82
2021/06/04 00:54:29;;;;;;;5.82;2.88;;;;;;;16.81;65.17;95918.03;1013013;29;20115;-80
2021/06/04 00:55:00;;;;;;;6.45;2.90;;;;;;;16.83;65.17;95924.00;1009033;29;20033;-82
2021/06/04 00:55:31;;;;;;;4.85;2.80;;;;;;;16.92;65.33;95946.84;1016925;29;20394;-82
2021/06/04 00:56:02;;;;;;;5.13;2.97;;;;;;;16.93;65.58;95947.69;1017077;29;20103;-82
2021/06/04 00:56:33;;;;;;;4.70;2.90;;;;;;;16.86;65.99;95954.94;1021067;29;20484;-81
2021/06/04 00:57:04;;;;;;;6.00;3.35;;;;;;;16.78;66.18;95951.44;1016676;29;20024;-82
2021/06/04 00:57:35;;;;;;;4.68;3.08;;;;;;;16.71;66.20;95939.94;1016729;29;20055;-81
2021/06/04 00:58:06;;;;;;;3.83;3.15;;;;;;;16.81;66.04;95946.69;1012121;29;20038;-83
2021/06/04 00:58:40;;;;;;;3.95;2.85;;;;;;;16.67;65.99;95925.31;1016718;29;20032;-82
2021/06/04 00:59:11;;;;;;;5.35;3.00;;;;;;;16.33;66.51;95880.94;1020505;29;20501;-81
2021/06/04 00:59:43;;;;;;;5.22;2.60;;;;;;;16.63;66.90;95937.50;1012695;29;20064;-82
2021/06/04 01:00:26;;;;;;;5.47;3.55;;;;;;;16.58;66.39;95919.38;1016492;29;20036;-82
2021/06/04 01:00:58;;;;;;;4.65;2.83;;;;;;;16.73;66.55;95947.78;1016957;29;20490;-82
2021/06/04 01:01:30;;;;;;;8.77;3.85;;;;;;;16.63;66.39;95921.41;1020515;29;20502;-84
2021/06/04 01:02:01;;;;;;;4.43;3.15;;;;;;;16.58;66.94;95923.94;1016442;29;20475;-83
2021/06/04 01:02:32;;;;;;;4.30;3.20;;;;;;;16.40;66.61;95887.91;1016891;29;20094;-84
2021/06/04 01:03:03;;;;;;;4.72;2.92;;;;;;;16.74;66.89;95954.78;1013138;29;20510;-83
2021/06/04 01:03:36;;;;;;;6.90;2.92;;;;;;;16.60;67.11;95943.31;1016947;29;20028;-83
2021/06/04 01:04:10;;;;;;;3.88;2.85;;;;;;;16.73;67.22;95951.28;1017434;29;20028;-83
2021/06/04 01:04:40;;;;;;;4.28;2.92;;;;;;;16.56;66.95;95920.63;1025661;29;20030;-82
2021/06/04 01:05:11;;;;;;;5.55;2.85;;;;;;;16.62;67.03;95935.88;1017507;29;20070;-82
2021/06/04 01:05:42;;;;;;;4.65;2.80;;;;;;;16.72;67.41;95957.69;1009239;29;20033;-83
2021/06/04 01:06:28;;;;;;;4.20;3.20;;;;;;;16.72;67.70;95955.00;1016961;29;20067;-82
2021/06/04 01:07:19;;;;;;;4.57;2.97;;;;;;;16.72;67.87;95951.47;1013176;29;20028;-83
2021/06/04 01:07:59;;;;;;;5.07;3.63;;;;;;;16.70;68.11;95954.41;1015215;29;20033;-84
2021/06/04 01:08:29;;;;;;;;;;;;;;;16.77;68.26;95957.88;1014022;29;20040;-82
2021/06/04 01:09:18;;;;;;;7.00;3.72;;;;;;;16.76;68.33;95955.41;1017608;29;19983;-82
2021/06/04 01:10:11;;;;;;;5.25;3.42;;;;;;;16.80;68.58;95958.47;1017162;29;20039;-81
2021/06/04 01:10:54;;;;;;;5.13;3.53;;;;;;;16.78;68.95;95961.38;1017622;29;20036;-82
2021/06/04 01:11:52;;;;;;;4.28;3.08;;;;;;;16.65;69.28;95948.00;1018109;29;20046;-81
2021/06/04 01:12:36;;;;;;;5.90;3.47;;;;;;;16.49;69.82;95933.25;1010962;29;20025;-82
2021/06/04 01:13:10;;;;;;;6.75;3.33;;;;;;;16.69;69.72;95963.47;1021573;29;20032;-84
2021/06/04 01:13:53;;;;;;;6.10;3.47;;;;;;;16.69;69.94;95963.47;1017244;29;20027;-83
2021/06/04 01:14:45;;;;;;;5.05;3.65;;;;;;;16.58;69.94;95951.56;1013440;29;20399;-81
2021/06/04 01:15:24;;;;;;;5.68;3.58;;;;;;;16.71;69.84;95974.81;1021899;29;20028;-82
2021/06/04 01:16:09;;;;;;;4.68;2.97;;;;;;;16.66;69.40;95971.94;1021231;29;20532;-80
2021/06/04 01:16:53;;;;;;;9.00;3.47;;;;;;;16.53;69.63;95948.69;1017114;29;20035;-81
2021/06/04 01:17:55;;;;;;;4.60;2.78;;;;;;;16.53;69.83;95958.63;1017260;29;20086;-82
2021/06/04 01:18:29;;;;;;;6.85;3.42;;;;;;;16.54;70.30;95976.31;1019842;29;20044;-80
2021/06/04 01:19:17;;;;;;;5.80;3.38;;;;;;;16.55;69.94;95967.25;1013805;29;20028;-80
2021/06/04 01:19:51;;;;;;;12.07;3.78;;;;;;;16.54;69.96;95976.31;1013210;29;20530;-81
2021/06/04 01:20:27;;;;;;;8.45;3.53;;;;;;;16.30;70.35;95945.69;1009079;29;20107;-82
2021/06/04 01:21:03;;;;;;;5.15;3.40;;;;;;;16.10;71.31;95929.69;1016813;29;20051;-82
2021/06/04 01:21:40;;;;;;;4.85;3.60;;;;;;;16.29;71.08;95957.47;1012988;29;20067;-82
2021/06/04 01:22:38;;;;;;;5.13;3.50;;;;;;;16.38;71.49;95978.44;1020952;29;20137;-82
2021/06/04 01:23:20;;;;;;;5.65;3.55;;;;;;;16.27;72.34;95978.31;1017409;29;20031;-82
2021/06/04 01:23:59;;;;;;;6.93;3.65;;;;;;;16.16;73.46;95979.75;1014158;29;20029;-82
2021/06/04 01:24:48;;;;;;;4.93;3.60;;;;;;;16.12;73.95;95974.00;1017298;29;20099;-82
2021/06/04 01:25:36;;;;;;;6.38;2.95;;;;;;;15.93;75.42;95977.53;1025624;28;20090;-80
2021/06/04 01:26:31;;;;;;;6.18;4.00;;;;;;;15.94;75.75;95980.00;1021381;29;20123;-81
2021/06/04 01:27:04;;;;;;;8.43;4.10;;;;;;;15.71;76.01;95944.78;1015447;29;20187;-80
2021/06/04 01:27:37;;;;;;;6.07;3.85;;;;;;;15.84;76.49;95963.53;1009706;29;20052;-80
2021/06/04 01:28:23;;;;;;;6.85;3.90;;;;;;;15.91;76.72;95980.44;1013411;29;20025;-80
2021/06/04 01:28:57;;;;;;;4.47;3.40;;;;;;;15.87;76.98;95971.16;1017110;29;20035;-82
2021/06/04 01:29:34;;;;;;;5.82;3.67;;;;;;;15.86;77.14;95974.88;1013173;29;20068;-82
2021/06/04 01:30:28;;;;;;;5.45;3.55;;;;;;;15.87;77.75;95979.22;1017363;29;20431;-80
2021/06/04 01:31:00;;;;;;;5.80;3.63;;;;;;;15.85;77.83;95975.91;1013038;29;20430;-79
2021/06/04 01:31:37;;;;;;;5.75;3.75;;;;;;;15.83;77.96;95981.47;1013125;29;20083;-82
2021/06/04 01:32:23;;;;;;;4.68;3.78;;;;;;;15.80;77.64;95970.38;1017166;29;20392;-82
2021/06/04 01:33:13;;;;;;;8.25;3.90;;;;;;;15.76;77.89;95982.50;1016664;29;20024;-81
2021/06/04 01:33:49;;;;;;;6.25;3.75;;;;;;;15.75;77.64;95975.50;1016870;29;20459;-81
2021/06/04 01:34:37;;;;;;;5.05;3.67;;;;;;;15.37;77.58;95914.56;1016942;29;20028;-80
2021/06/04 01:35:15;;;;;;;5.78;4.30;;;;;;;15.69;77.78;95970.94;1013036;29;20372;-80
2021/06/04 01:35:48;;;;;;;6.60;4.10;;;;;;;15.79;77.27;95980.22;1013044;29;20104;-81
2021/06/04 01:36:24;;;;;;;7.85;4.72;;;;;;;15.65;77.12;95955.28;1009225;29;20025;-80
2021/06/04 01:37:08;;;;;;;7.85;4.07;;;;;;;15.79;77.17;95979.41;1009229;29;20037;-81
2021/06/04 01:37:39;;;;;;;7.18;3.75;;;;;;;15.71;77.16;95977.75;1012908;29;20028;-81
2021/06/04 01:38:12;;;;;;;8.20;4.13;;;;;;;15.77;76.58;95987.66;1008920;29;20109;-80
2021/06/04 01:38:43;;;;;;;5.28;3.70;;;;;;;15.70;75.78;95975.28;1009033;29;20069;-80
2021/06/04 01:39:16;;;;;;;7.03;4.20;;;;;;;15.55;75.96;95959.41;1013043;29;20028;-80
2021/06/04 01:39:49;;;;;;;5.20;3.63;;;;;;;15.60;75.99;95947.06;1012740;29;20036;-81
2021/06/04 01:40:27;;;;;;;8.30;3.95;;;;;;;15.81;76.14;95980.03;1005096;29;20139;-80
2021/06/04 01:41:03;;;;;;;4.20;3.30;;;;;;;15.65;75.64;95957.97;1009254;29;20025;-80
2021/06/04 01:41:34;;;;;;;6.65;3.58;;;;;;;15.61;75.24;95943.34;1009035;29;20535;-80
2021/06/04 01:42:06;;;;;;;5.55;3.80;;;;;;;15.80;75.61;95978.41;1012735;29;20024;-81
2021/06/04 01:42:38;;;;;;;9.55;4.45;;;;;;;15.83;75.35;95975.28;1009389;29;20032;-82
2021/06/04 01:43:24;;;;;;;7.15;4.25;;;;;;;15.67;75.19;95952.41;1009215;29;20099;-82
2021/06/04 01:44:08;;;;;;;12.20;5.18;;;;;;;15.63;75.36;95949.31;1017228;29;20514;-82
2021/06/04 01:45:06;;;;;;;16.45;4.63;;;;;;;15.83;75.16;95973.44;1013541;29;20024;-82
2021/06/04 01:45:40;;;;;;;8.52;3.88;;;;;;;15.82;74.96;95979.81;1012526;29;20048;-81
2021/06/04 01:46:15;;;;;;;10.43;4.38;;;;;;;15.70;74.85;95953.84;1013449;29;20146;-83
2021/06/04 01:46:51;;;;;;;8.02;4.32;;;;;;;15.81;74.92;95975.50;1017642;29;20402;-81
2021/06/04 01:47:29;;;;;;;10.77;5.18;;;;;;;15.84;75.17;95971.56;1009762;29;20487;-82
2021/06/04 01:48:10;;;;;;;6.70;3.90;;;;;;;15.84;75.10;95979.63;1021149;29;20031;-83
2021/06/04 01:48:43;;;;;;;9.02;4.07;;;;;;;15.86;74.90;95979.41;1017387;29;20040;-83
2021/06/04 01:49:25;;;;;;;9.35;4.30;;;;;;;15.81;75.32;95966.63;1017289;29;20072;-82
2021/06/04 01:49:56;;;;;;;7.45;4.00;;;;;;;15.79;75.24;95966.84;1013687;29;20020;-82
2021/06/04 01:50:31;;;;;;;5.25;3.65;;;;;;;15.81;75.17;95966.63;1005929;29;20050;-82
2021/06/04 01:51:08;;;;;;;9.30;3.58;;;;;;;15.84;75.17;95968.91;1013866;29;20056;-81
2021/06/04 01:51:45;;;;;;;6.18;3.55;;;;;;;15.87;75.25;95984.56;1017305;29;20028;-80
2021/06/04 01:52:28;;;;;;;6.53;3.90;;;;;;;15.74;75.24;95957.75;1013712;29;20060;-82
2021/06/04 01:53:00;;;;;;;5.53;3.65;;;;;;;15.78;75.46;95964.41;1021283;29;20030;-81
2021/06/04 01:53:41;;;;;;;5.75;3.72;;;;;;;15.63;75.54;95949.31;1025123;29;20019;-81
2021/06/04 01:54:15;;;;;;;5.38;3.75;;;;;;;15.76;75.58;95958.41;1021008;29;20067;-81
2021/06/04 01:54:52;;;;;;;5.45;3.55;;;;;;;15.86;75.69;95980.22;1017056;29;20028;-81
2021/06/04 01:55:28;;;;;;;5.25;3.67;;;;;;;15.80;75.44;95973.84;1016842;29;20026;-80
2021/06/04 01:56:07;;;;;;;6.68;3.83;;;;;;;15.80;75.66;95970.38;1016844;29;20028;-80
2021/06/04 01:56:47;;;;;;;6.80;3.97;;;;;;;15.81;76.11;95978.19;1013513;29;20156;-82
2021/06/04 01:57:25;;;;;;;6.95;4.38;;;;;;;15.82;75.93;95979.00;1017017;29;20202;-81
2021/06/04 01:58:06;;;;;;;8.07;3.95;;;;;;;15.80;76.05;95971.19;1016699;29;20028;-81
2021/06/04 01:58:47;;;;;;;9.02;4.05;;;;;;;15.74;76.07;95953.22;1016804;29;20020;-81
2021/06/04 01:59:30;;;;;;;8.43;3.80;;;;;;;15.82;76.24;95973.66;1017126;29;20055;-81
2021/06/04 02:00:00;;;;;;;7.50;3.75;;;;;;;15.75;76.69;95965.63;1020976;29;20552;-81
2021/06/04 02:00:55;;;;;;;10.55;3.97;;;;;;;15.74;76.76;95961.25;1017046;29;20024;-79
2021/06/04 02:01:37;;;;;;;6.82;3.72;;;;;;;15.77;77.10;95971.59;1016986;29;20026;-82
2021/06/04 02:02:08;;;;;;;8.10;3.92;;;;;;;15.69;76.84;95957.56;1020846;29;20058;-80
2021/06/04 02:02:39;;;;;;;5.05;3.70;;;;;;;15.69;76.66;95958.38;1016838;29;20025;-81
2021/06/04 02:03:12;;;;;;;4.50;3.30;;;;;;;15.72;76.85;95954.47;1016874;29;20019;-81
2021/06/04 02:03:43;;;;;;;7.95;4.07;;;;;;;15.42;76.55;95920.13;1013179;29;20025;-81
2021/06/04 02:04:16;;;;;;;5.28;3.55;;;;;;;15.69;76.92;95957.56;1020722;29;20023;-81
2021/06/04 02:04:53;;;;;;;7.03;3.90;;;;;;;15.56;77.10;95943.16;1020874;29;20016;-81
2021/06/04 02:05:33;;;;;;;6.65;4.00;;;;;;;15.67;77.05;95957.75;1016903;29;20032;-80
2021/06/04 02:06:05;;;;;;;6.15;3.90;;;;;;;15.55;77.33;95940.69;1012985;29;20024;-81
2021/06/04 02:06:36;;;;;;;5.85;4.00;;;;;;;15.62;77.34;95947.69;1009426;29;20032;-80
2021/06/04 02:07:10;;;;;;;5.80;3.75;;;;;;;15.60;77.80;95952.41;1013092;29;20024;-80
2021/06/04 02:07:41;;;;;;;6.25;3.90;;;;;;;15.64;77.55;95961.69;1013159;29;20558;-81
2021/06/04 02:08:16;;;;;;;6.82;3.97;;;;;;;15.68;77.57;95970.13;1008976;29;20025;-81
2021/06/04 02:08:50;;;;;;;6.53;3.97;;;;;;;15.62;77.51;95968.25;1016979;29;20059;-80
2021/06/04 02:09:22;;;;;;;5.22;3.40;;;;;;;15.54;77.54;95955.94;1012972;29;20021;-81
2021/06/04 02:09:53;;;;;;;5.97;3.85;;;;;;;15.56;77.76;95951.19;1009303;29;20025;-81
2021/06/04 02:10:32;;;;;;;7.05;4.13;;;;;;;15.57;77.77;95952.00;1016836;29;20111;-82
2021/06/04 02:11:04;;;;;;;9.35;4.18;;;;;;;15.58;77.64;95965.19;1020889;29;20070;-82
2021/06/04 02:11:34;;;;;;;5.88;3.83;;;;;;;15.54;77.50;95955.94;1020850;29;20024;-82
2021/06/04 02:12:05;;;;;;;5.65;3.60;;;;;;;15.50;77.47;95944.00;1012956;29;20025;-81
2021/06/04 02:12:36;;;;;;;3.85;3.45;;;;;;;15.50;77.56;95952.03;1012789;29;20032;-80
2021/06/04 02:13:07;;;;;;;7.38;3.83;;;;;;;15.26;77.50;95911.47;1012930;29;20732;-81
2021/06/04 02:13:42;;;;;;;7.43;4.13;;;;;;;15.35;77.70;95930.81;1016266;29;20036;-82
2021/06/04 02:14:15;;;;;;;5.38;3.40;;;;;;;15.31;77.77;95926.91;1020557;29;20544;-81
2021/06/04 02:14:48;;;;;;;5.13;3.65;;;;;;;15.61;77.14;95975.47;1016720;29;20020;-81
2021/06/04 02:15:28;;;;;;;4.93;3.70;;;;;;;15.39;77.55;95944.59;1024813;29;20027;-81
2021/06/04 02:16:11;;;;;;;5.32;3.60;;;;;;;15.62;77.73;95974.47;1013028;29;20025;-81
2021/06/04 02:17:08;;;;;;;5.68;4.00;;;;;;;15.59;77.55;95969.53;1016655;29;20040;-82
2021/06/04 02:17:45;;;;;;;7.15;4.40;;;;;;;15.58;77.66;95967.84;1009080;29;20122;-82
2021/06/04 02:18:28;;;;;;;6.25;4.45;;;;;;;15.58;77.96;95975.06;1012944;29;20036;-82
2021/06/04 02:19:36;;;;;;;6.20;3.53;;;;;;;15.50;78.55;95977.94;1016828;29;20079;-82
2021/06/04 02:20:10;;;;;;;7.95;4.40;;;;;;;15.31;78.80;95951.00;1019466;29;20020;-80
2021/06/04 02:20:53;;;;;;;7.95;4.38;;;;;;;15.25;79.37;95952.63;1015713;29;20035;-81
2021/06/04 02:21:26;;;;;;;5.70;3.30;;;;;;;15.08;79.92;95935.31;1013060;29;20041;-81
2021/06/04 02:22:03;;;;;;;7.90;4.78;;;;;;;15.25;79.86;95957.16;1017057;29;20024;-81
2021/06/04 02:22:42;;;;;;;8.05;4.20;;;;;;;15.38;80.19;95980.41;1013041;29;20031;-82
2021/06/04 02:23:28;;;;;;;6.93;4.28;;;;;;;15.19;80.20;95950.78;1012858;29;20025;-80
2021/06/04 02:24:09;;;;;;;10.55;4.60;;;;;;;15.30;80.16;95959.22;1009194;29;20051;-81
2021/06/04 02:24:57;;;;;;;9.55;4.28;;;;;;;15.34;80.66;95971.16;1012886;29;20029;-80
2021/06/04 02:25:43;;;;;;;8.07;4.63;;;;;;;15.40;81.31;95981.06;1012930;29;20048;-80
2021/06/04 02:26:30;;;;;;;9.40;4.50;;;;;;;15.38;81.41;95993.78;1009718;29;20092;-80
2021/06/04 02:27:10;;;;;;;6.47;3.80;;;;;;;15.41;81.42;95982.69;1017695;29;20031;-80
2021/06/04 02:27:44;;;;;;;;;;;;;;;15.37;81.11;95987.63;1013381;29;20032;-81
2021/06/04 02:28:37;;;;;;;6.80;4.35;;;;;;;15.37;81.33;95979.59;1012862;29;19918;-80
2021/06/04 02:29:24;;;;;;;7.28;3.88;;;;;;;15.40;81.02;95978.38;1016734;29;20024;-80
2021/06/04 02:30:00;;;;;;;6.20;3.60;;;;;;;15.43;80.51;95985.97;1010425;29;20032;-82
2021/06/04 02:30:40;;;;;;;8.02;3.88;;;;;;;15.19;80.89;95961.47;1017085;29;20024;-80
2021/06/04 02:31:29;;;;;;;6.75;3.65;;;;;;;15.28;81.00;95978.97;1016776;29;20512;-80
2021/06/04 02:32:19;;;;;;;7.10;3.67;;;;;;;15.27;81.04;95977.34;1013172;29;20028;-81
2021/06/04 02:33:01;;;;;;;7.13;3.70;;;;;;;15.36;80.87;95975.28;1017148;29;20043;-82
2021/06/04 02:33:37;;;;;;;9.00;4.20;;;;;;;15.19;80.47;95947.28;1013327;29;20025;-79
2021/06/04 02:34:33;;;;;;;6.38;4.10;;;;;;;15.32;80.82;95962.53;1013128;29;20126;-79
2021/06/04 02:35:35;;;;;;;5.03;3.92;;;;;;;15.41;80.54;95978.19;1017062;29;20394;-80
2021/06/04 02:36:15;;;;;;;5.43;3.38;;;;;;;15.31;80.54;95960.84;1020485;29;20039;-81
2021/06/04 02:36:59;;;;;;;7.68;3.60;;;;;;;15.42;80.89;95981.66;1011457;29;20033;-81
2021/06/04 02:37:39;;;;;;;6.57;3.55;;;;;;;15.43;80.34;95980.63;1010733;29;20035;-80
2021/06/04 02:38:18;;;;;;;8.50;3.72;;;;;;;15.41;80.39;95980.00;1022155;29;20028;-80
2021/06/04 02:38:54;;;;;;;5.40;4.00;;;;;;;15.34;80.19;95963.94;1010486;29;20058;-80
2021/06/04 02:39:57;;;;;;;6.63;3.42;;;;;;;15.34;79.88;95966.63;1013420;29;20025;-80
2021/06/04 02:40:30;;;;;;;6.03;3.40;;;;;;;15.23;79.72;95949.34;1016541;29;20415;-80
2021/06/04 02:41:11;;;;;;;5.47;3.60;;;;;;;15.14;80.46;95937.19;1008905;29;20028;-80
2021/06/04 02:41:45;;;;;;;8.25;3.80;;;;;;;15.22;80.10;95950.38;1016851;29;20391;-80
2021/06/04 02:42:18;;;;;;;7.65;3.85;;;;;;;15.35;80.44;95973.63;1016953;29;20024;-81
2021/06/04 02:42:55;;;;;;;6.57;3.65;;;;;;;15.25;80.32;95963.31;1012948;29;20025;-81
2021/06/04 02:43:41;;;;;;;5.10;3.85;;;;;;;15.31;80.57;95972.41;1020897;29;20019;-81
2021/06/04 02:44:24;;;;;;;6.72;3.70;;;;;;;15.31;80.97;95975.09;1012785;29;20119;-80
2021/06/04 02:45:00;;;;;;;4.55;3.65;;;;;;;15.00;81.04;95932.88;1016733;29;20036;-82
2021/06/04 02:45:39;;;;;;;5.53;3.92;;;;;;;15.08;81.05;95932.66;1016761;29;20405;-81
2021/06/04 02:46:21;;;;;;;5.40;3.90;;;;;;;15.26;81.00;95973.00;1020726;29;20517;-82
2021/06/04 02:46:57;;;;;;;5.82;3.60;;;;;;;15.23;81.45;95970.75;1020843;29;20031;-82
2021/06/04 02:47:49;;;;;;;6.75;3.65;;;;;;;15.22;81.85;95969.09;1012806;29;20028;-81
2021/06/04 02:48:20;;;;;;;6.35;3.58;;;;;;;15.00;82.06;95938.22;1008831;29;20090;-80
2021/06/04 02:48:51;;;;;;;6.63;3.78;;;;;;;15.09;81.95;95956.53;1013026;29;20100;-80
2021/06/04 02:49:22;;;;;;;5.20;4.10;;;;;;;15.10;82.62;95960.03;1009455;29;20068;-81
2021/06/04 02:49:54;;;;;;;4.80;3.70;;;;;;;14.64;82.14;95885.91;1016755;29;20071;-82
2021/06/04 02:50:27;;;;;;;9.60;4.10;;;;;;;14.98;82.90;95940.25;1013057;29;20043;-81
2021/06/04 02:51:08;;;;;;;7.57;4.03;;;;;;;15.08;82.69;95956.72;1017257;29;20024;-81
2021/06/04 02:51:55;;;;;;;5.95;3.78;;;;;;;14.85;82.97;95922.34;1016973;29;20107;-80
2021/06/04 02:52:33;;;;;;;4.78;3.70;;;;;;;15.10;83.37;95973.41;1013111;29;20047;-82